sensor_id;sensor_type;location;lat;lon;timestamp;P1;durP1;ratioP1;P2;durP2;ratioP2
21260;SDS011;10788;47.930;9.766;2022-08-23T00:01:47;0.00;;;0.00;;
21260;SDS011;10788;47.930;9.766;2022-08-23T00:04:15;0.00;;;0.00;;
21260;SDS011;10788;47.930;9.766;2022-08-23T00:06:46;0.00;;;0.00;;
21260;SDS011;10788;47.930;9.766;2022-08-23T00:09:13;0.00;;;0.00;;
21260;SDS011;10788;47.930;9.766;2022-08-23T00:11:50;0.00;;;0.00;;
21260;SDS011;10788;47.930;9.766;2022-08-23T00:14:27;0.00;;;0.00;;
21260;SDS011;10788;47.930;9.766;2022-08-23T00:16:55;0.00;;;0.00;;
21260;SDS011;10788;47.930;9.766;2022-08-23T00:19:21;0.00;;;0.00;;
21260;SDS011;10788;47.930;9.766;2022-08-23T00:21:48;0.00;;;0.00;;
21260;SDS011;10788;47.930;9.766;2022-08-23T00:24:16;0.00;;;0.00;;
21260;SDS011;10788;47.930;9.766;2022-08-23T00:29:15;0.00;;;0.00;;
21260;SDS011;10788;47.930;9.766;2022-08-23T00:31:42;0.00;;;0.00;;
21260;SDS011;10788;47.930;9.766;2022-08-23T00:34:08;0.00;;;0.00;;
21260;SDS011;10788;47.930;9.766;2022-08-23T00:36:33;0.00;;;0.00;;
21260;SDS011;10788;47.930;9.766;2022-08-23T00:38:59;0.07;;;0.07;;
21260;SDS011;10788;47.930;9.766;2022-08-23T00:41:25;0.00;;;0.00;;
21260;SDS011;10788;47.930;9.766;2022-08-23T00:43:52;0.00;;;0.00;;
21260;SDS011;10788;47.930;9.766;2022-08-23T00:49:27;0.00;;;0.00;;
21260;SDS011;10788;47.930;9.766;2022-08-23T00:52:02;0.00;;;0.00;;
21260;SDS011;10788;47.930;9.766;2022-08-23T00:54:36;0.00;;;0.00;;
21260;SDS011;10788;47.930;9.766;2022-08-23T00:57:06;0.00;;;0.00;;
21260;SDS011;10788;47.930;9.766;2022-08-23T00:59:34;0.00;;;0.00;;
21260;SDS011;10788;47.930;9.766;2022-08-23T01:02:00;0.00;;;0.00;;
21260;SDS011;10788;47.930;9.766;2022-08-23T01:04:27;0.00;;;0.00;;
21260;SDS011;10788;47.930;9.766;2022-08-23T01:07:20;0.00;;;0.00;;
21260;SDS011;10788;47.930;9.766;2022-08-23T01:10:11;0.00;;;0.00;;
21260;SDS011;10788;47.930;9.766;2022-08-23T01:13:01;0.00;;;0.00;;
21260;SDS011;10788;47.930;9.766;2022-08-23T01:15:38;0.00;;;0.00;;
21260;SDS011;10788;47.930;9.766;2022-08-23T01:18:10;0.03;;;0.03;;
21260;SDS011;10788;47.930;9.766;2022-08-23T01:20:41;0.00;;;0.00;;
21260;SDS011;10788;47.930;9.766;2022-08-23T01:25:48;0.00;;;0.00;;
21260;SDS011;10788;47.930;9.766;2022-08-23T01:28:14;0.00;;;0.00;;
21260;SDS011;10788;47.930;9.766;2022-08-23T01:30:40;0.00;;;0.00;;
21260;SDS011;10788;47.930;9.766;2022-08-23T01:33:10;0.00;;;0.00;;
21260;SDS011;10788;47.930;9.766;2022-08-23T01:35:40;0.00;;;0.00;;
21260;SDS011;10788;47.930;9.766;2022-08-23T01:38:13;0.00;;;0.00;;
21260;SDS011;10788;47.930;9.766;2022-08-23T01:40:40;0.00;;;0.00;;
21260;SDS011;10788;47.930;9.766;2022-08-23T01:43:06;0.00;;;0.00;;
21260;SDS011;10788;47.930;9.766;2022-08-23T01:45:33;0.00;;;0.00;;
21260;SDS011;10788;47.930;9.766;2022-08-23T01:47:59;0.00;;;0.00;;
21260;SDS011;10788;47.930;9.766;2022-08-23T01:50:26;0.00;;;0.00;;
21260;SDS011;10788;47.930;9.766;2022-08-23T01:52:52;0.00;;;0.00;;
21260;SDS011;10788;47.930;9.766;2022-08-23T01:55:18;0.00;;;0.00;;
21260;SDS011;10788;47.930;9.766;2022-08-23T01:57:46;0.00;;;0.00;;
21260;SDS011;10788;47.930;9.766;2022-08-23T02:00:16;0.00;;;0.00;;
21260;SDS011;10788;47.930;9.766;2022-08-23T02:02:43;0.00;;;0.00;;
21260;SDS011;10788;47.930;9.766;2022-08-23T02:05:11;0.00;;;0.00;;
21260;SDS011;10788;47.930;9.766;2022-08-23T02:07:37;0.00;;;0.00;;
21260;SDS011;10788;47.930;9.766;2022-08-23T02:10:04;0.00;;;0.00;;
21260;SDS011;10788;47.930;9.766;2022-08-23T02:12:31;0.00;;;0.00;;
21260;SDS011;10788;47.930;9.766;2022-08-23T02:14:57;0.00;;;0.00;;
21260;SDS011;10788;47.930;9.766;2022-08-23T02:17:22;0.00;;;0.00;;
21260;SDS011;10788;47.930;9.766;2022-08-23T02:19:48;0.03;;;0.03;;
21260;SDS011;10788;47.930;9.766;2022-08-23T02:22:14;0.00;;;0.00;;
21260;SDS011;10788;47.930;9.766;2022-08-23T02:24:41;0.00;;;0.00;;
21260;SDS011;10788;47.930;9.766;2022-08-23T02:27:08;0.00;;;0.00;;
21260;SDS011;10788;47.930;9.766;2022-08-23T02:29:35;0.00;;;0.00;;
21260;SDS011;10788;47.930;9.766;2022-08-23T02:32:02;0.00;;;0.00;;
21260;SDS011;10788;47.930;9.766;2022-08-23T02:34:29;0.00;;;0.00;;
21260;SDS011;10788;47.930;9.766;2022-08-23T02:36:55;0.00;;;0.00;;
21260;SDS011;10788;47.930;9.766;2022-08-23T02:39:22;0.00;;;0.00;;
21260;SDS011;10788;47.930;9.766;2022-08-23T02:41:48;0.00;;;0.00;;
21260;SDS011;10788;47.930;9.766;2022-08-23T02:44:13;0.00;;;0.00;;
21260;SDS011;10788;47.930;9.766;2022-08-23T02:46:40;0.00;;;0.00;;
21260;SDS011;10788;47.930;9.766;2022-08-23T02:49:06;0.00;;;0.00;;
21260;SDS011;10788;47.930;9.766;2022-08-23T02:51:32;0.00;;;0.00;;
21260;SDS011;10788;47.930;9.766;2022-08-23T02:53:58;0.00;;;0.00;;
21260;SDS011;10788;47.930;9.766;2022-08-23T02:56:25;0.00;;;0.00;;
21260;SDS011;10788;47.930;9.766;2022-08-23T02:58:50;0.00;;;0.00;;
21260;SDS011;10788;47.930;9.766;2022-08-23T03:01:17;0.00;;;0.00;;
21260;SDS011;10788;47.930;9.766;2022-08-23T03:03:45;0.00;;;0.00;;
21260;SDS011;10788;47.930;9.766;2022-08-23T03:06:11;0.00;;;0.00;;
21260;SDS011;10788;47.930;9.766;2022-08-23T03:08:38;0.00;;;0.00;;
21260;SDS011;10788;47.930;9.766;2022-08-23T03:11:09;0.00;;;0.00;;
21260;SDS011;10788;47.930;9.766;2022-08-23T03:13:40;0.00;;;0.00;;
21260;SDS011;10788;47.930;9.766;2022-08-23T03:16:06;0.00;;;0.00;;
21260;SDS011;10788;47.930;9.766;2022-08-23T03:18:32;0.00;;;0.00;;
21260;SDS011;10788;47.930;9.766;2022-08-23T03:20:59;0.00;;;0.00;;
21260;SDS011;10788;47.930;9.766;2022-08-23T03:23:25;0.00;;;0.00;;
21260;SDS011;10788;47.930;9.766;2022-08-23T03:25:51;0.00;;;0.00;;
21260;SDS011;10788;47.930;9.766;2022-08-23T03:28:17;0.00;;;0.00;;
21260;SDS011;10788;47.930;9.766;2022-08-23T03:30:42;0.00;;;0.00;;
21260;SDS011;10788;47.930;9.766;2022-08-23T03:33:08;0.00;;;0.00;;
21260;SDS011;10788;47.930;9.766;2022-08-23T03:35:34;0.00;;;0.00;;
21260;SDS011;10788;47.930;9.766;2022-08-23T03:38:00;0.00;;;0.00;;
21260;SDS011;10788;47.930;9.766;2022-08-23T03:40:25;0.00;;;0.00;;
21260;SDS011;10788;47.930;9.766;2022-08-23T03:42:51;0.00;;;0.00;;
21260;SDS011;10788;47.930;9.766;2022-08-23T03:45:17;0.00;;;0.00;;
21260;SDS011;10788;47.930;9.766;2022-08-23T03:47:43;0.00;;;0.00;;
21260;SDS011;10788;47.930;9.766;2022-08-23T03:50:09;0.00;;;0.00;;
21260;SDS011;10788;47.930;9.766;2022-08-23T03:52:35;0.00;;;0.00;;
21260;SDS011;10788;47.930;9.766;2022-08-23T03:55:01;0.00;;;0.00;;
21260;SDS011;10788;47.930;9.766;2022-08-23T03:57:26;0.00;;;0.00;;
21260;SDS011;10788;47.930;9.766;2022-08-23T03:59:52;0.00;;;0.00;;
21260;SDS011;10788;47.930;9.766;2022-08-23T04:02:17;0.00;;;0.00;;
21260;SDS011;10788;47.930;9.766;2022-08-23T04:04:43;0.00;;;0.00;;
21260;SDS011;10788;47.930;9.766;2022-08-23T04:07:09;0.00;;;0.00;;
21260;SDS011;10788;47.930;9.766;2022-08-23T04:09:35;0.00;;;0.00;;
21260;SDS011;10788;47.930;9.766;2022-08-23T04:12:00;0.00;;;0.00;;
21260;SDS011;10788;47.930;9.766;2022-08-23T04:14:26;0.00;;;0.00;;
21260;SDS011;10788;47.930;9.766;2022-08-23T04:16:52;0.00;;;0.00;;
21260;SDS011;10788;47.930;9.766;2022-08-23T04:19:17;0.00;;;0.00;;
21260;SDS011;10788;47.930;9.766;2022-08-23T04:21:45;0.00;;;0.00;;
21260;SDS011;10788;47.930;9.766;2022-08-23T04:24:14;0.00;;;0.00;;
21260;SDS011;10788;47.930;9.766;2022-08-23T04:26:40;0.00;;;0.00;;
21260;SDS011;10788;47.930;9.766;2022-08-23T04:29:06;0.00;;;0.00;;
21260;SDS011;10788;47.930;9.766;2022-08-23T04:31:32;0.00;;;0.00;;
21260;SDS011;10788;47.930;9.766;2022-08-23T04:33:59;0.00;;;0.00;;
21260;SDS011;10788;47.930;9.766;2022-08-23T04:36:25;0.00;;;0.00;;
21260;SDS011;10788;47.930;9.766;2022-08-23T04:38:55;0.00;;;0.00;;
21260;SDS011;10788;47.930;9.766;2022-08-23T04:41:21;0.00;;;0.00;;
21260;SDS011;10788;47.930;9.766;2022-08-23T04:44:05;0.00;;;0.00;;
21260;SDS011;10788;47.930;9.766;2022-08-23T04:46:30;0.00;;;0.00;;
21260;SDS011;10788;47.930;9.766;2022-08-23T04:48:56;0.00;;;0.00;;
21260;SDS011;10788;47.930;9.766;2022-08-23T04:51:23;0.00;;;0.00;;
21260;SDS011;10788;47.930;9.766;2022-08-23T04:53:49;0.00;;;0.00;;
21260;SDS011;10788;47.930;9.766;2022-08-23T04:56:15;0.00;;;0.00;;
21260;SDS011;10788;47.930;9.766;2022-08-23T04:58:40;0.00;;;0.00;;
21260;SDS011;10788;47.930;9.766;2022-08-23T05:01:07;0.00;;;0.00;;
21260;SDS011;10788;47.930;9.766;2022-08-23T05:03:34;0.00;;;0.00;;
21260;SDS011;10788;47.930;9.766;2022-08-23T05:06:01;0.00;;;0.00;;
21260;SDS011;10788;47.930;9.766;2022-08-23T05:08:29;0.00;;;0.00;;
21260;SDS011;10788;47.930;9.766;2022-08-23T05:10:57;0.00;;;0.00;;
21260;SDS011;10788;47.930;9.766;2022-08-23T05:13:28;0.00;;;0.00;;
21260;SDS011;10788;47.930;9.766;2022-08-23T05:15:54;0.00;;;0.00;;
21260;SDS011;10788;47.930;9.766;2022-08-23T05:18:20;0.00;;;0.00;;
21260;SDS011;10788;47.930;9.766;2022-08-23T05:20:46;0.00;;;0.00;;
21260;SDS011;10788;47.930;9.766;2022-08-23T05:23:12;0.00;;;0.00;;
21260;SDS011;10788;47.930;9.766;2022-08-23T05:25:37;0.00;;;0.00;;
21260;SDS011;10788;47.930;9.766;2022-08-23T05:28:16;0.00;;;0.00;;
21260;SDS011;10788;47.930;9.766;2022-08-23T05:31:00;0.00;;;0.00;;
21260;SDS011;10788;47.930;9.766;2022-08-23T05:33:28;0.00;;;0.00;;
21260;SDS011;10788;47.930;9.766;2022-08-23T05:35:56;0.00;;;0.00;;
21260;SDS011;10788;47.930;9.766;2022-08-23T05:38:22;0.00;;;0.00;;
21260;SDS011;10788;47.930;9.766;2022-08-23T05:40:53;0.00;;;0.00;;
21260;SDS011;10788;47.930;9.766;2022-08-23T05:43:21;0.00;;;0.00;;
21260;SDS011;10788;47.930;9.766;2022-08-23T05:45:48;0.00;;;0.00;;
21260;SDS011;10788;47.930;9.766;2022-08-23T05:48:26;0.00;;;0.00;;
21260;SDS011;10788;47.930;9.766;2022-08-23T05:50:52;0.00;;;0.00;;
21260;SDS011;10788;47.930;9.766;2022-08-23T05:53:19;0.00;;;0.00;;
21260;SDS011;10788;47.930;9.766;2022-08-23T05:55:44;0.00;;;0.00;;
21260;SDS011;10788;47.930;9.766;2022-08-23T05:58:10;0.00;;;0.00;;
21260;SDS011;10788;47.930;9.766;2022-08-23T06:00:36;0.00;;;0.00;;
21260;SDS011;10788;47.930;9.766;2022-08-23T06:03:01;0.00;;;0.00;;
21260;SDS011;10788;47.930;9.766;2022-08-23T06:05:27;0.00;;;0.00;;
21260;SDS011;10788;47.930;9.766;2022-08-23T06:07:53;0.00;;;0.00;;
21260;SDS011;10788;47.930;9.766;2022-08-23T06:10:19;0.00;;;0.00;;
21260;SDS011;10788;47.930;9.766;2022-08-23T06:12:45;0.00;;;0.00;;
21260;SDS011;10788;47.930;9.766;2022-08-23T06:15:11;0.00;;;0.00;;
21260;SDS011;10788;47.930;9.766;2022-08-23T06:17:37;0.00;;;0.00;;
21260;SDS011;10788;47.930;9.766;2022-08-23T06:20:03;0.00;;;0.00;;
21260;SDS011;10788;47.930;9.766;2022-08-23T06:22:30;0.00;;;0.00;;
21260;SDS011;10788;47.930;9.766;2022-08-23T06:24:57;0.00;;;0.00;;
21260;SDS011;10788;47.930;9.766;2022-08-23T06:27:22;0.00;;;0.00;;
21260;SDS011;10788;47.930;9.766;2022-08-23T06:29:48;0.00;;;0.00;;
21260;SDS011;10788;47.930;9.766;2022-08-23T06:32:13;0.00;;;0.00;;
21260;SDS011;10788;47.930;9.766;2022-08-23T06:34:39;0.00;;;0.00;;
21260;SDS011;10788;47.930;9.766;2022-08-23T06:37:09;0.00;;;0.00;;
21260;SDS011;10788;47.930;9.766;2022-08-23T06:39:37;0.00;;;0.00;;
21260;SDS011;10788;47.930;9.766;2022-08-23T06:42:13;0.00;;;0.00;;
21260;SDS011;10788;47.930;9.766;2022-08-23T06:44:40;0.00;;;0.00;;
21260;SDS011;10788;47.930;9.766;2022-08-23T06:47:06;0.00;;;0.00;;
21260;SDS011;10788;47.930;9.766;2022-08-23T06:49:33;0.00;;;0.00;;
21260;SDS011;10788;47.930;9.766;2022-08-23T06:51:59;0.10;;;0.10;;
21260;SDS011;10788;47.930;9.766;2022-08-23T06:54:29;0.00;;;0.00;;
21260;SDS011;10788;47.930;9.766;2022-08-23T06:56:56;0.00;;;0.00;;
21260;SDS011;10788;47.930;9.766;2022-08-23T06:59:23;0.00;;;0.00;;
21260;SDS011;10788;47.930;9.766;2022-08-23T07:01:51;0.00;;;0.00;;
21260;SDS011;10788;47.930;9.766;2022-08-23T07:04:32;0.00;;;0.00;;
21260;SDS011;10788;47.930;9.766;2022-08-23T07:07:00;0.00;;;0.00;;
21260;SDS011;10788;47.930;9.766;2022-08-23T07:09:26;0.00;;;0.00;;
21260;SDS011;10788;47.930;9.766;2022-08-23T07:11:53;0.00;;;0.00;;
21260;SDS011;10788;47.930;9.766;2022-08-23T07:14:20;0.00;;;0.00;;
21260;SDS011;10788;47.930;9.766;2022-08-23T07:19:31;0.00;;;0.00;;
21260;SDS011;10788;47.930;9.766;2022-08-23T07:21:58;0.00;;;0.00;;
21260;SDS011;10788;47.930;9.766;2022-08-23T07:24:25;0.00;;;0.00;;
21260;SDS011;10788;47.930;9.766;2022-08-23T07:26:52;0.00;;;0.00;;
21260;SDS011;10788;47.930;9.766;2022-08-23T07:29:18;0.00;;;0.00;;
21260;SDS011;10788;47.930;9.766;2022-08-23T07:31:46;0.00;;;0.00;;
21260;SDS011;10788;47.930;9.766;2022-08-23T07:34:20;0.00;;;0.00;;
21260;SDS011;10788;47.930;9.766;2022-08-23T07:36:48;0.10;;;0.10;;
21260;SDS011;10788;47.930;9.766;2022-08-23T07:39:14;0.00;;;0.00;;
21260;SDS011;10788;47.930;9.766;2022-08-23T07:41:42;0.00;;;0.00;;
21260;SDS011;10788;47.930;9.766;2022-08-23T07:44:08;0.10;;;0.10;;
21260;SDS011;10788;47.930;9.766;2022-08-23T07:46:36;0.00;;;0.00;;
21260;SDS011;10788;47.930;9.766;2022-08-23T07:49:04;0.00;;;0.00;;
21260;SDS011;10788;47.930;9.766;2022-08-23T07:51:31;0.00;;;0.00;;
21260;SDS011;10788;47.930;9.766;2022-08-23T07:53:59;0.00;;;0.00;;
21260;SDS011;10788;47.930;9.766;2022-08-23T07:56:26;0.00;;;0.00;;
21260;SDS011;10788;47.930;9.766;2022-08-23T07:58:55;0.10;;;0.10;;
21260;SDS011;10788;47.930;9.766;2022-08-23T08:01:22;0.10;;;0.10;;
21260;SDS011;10788;47.930;9.766;2022-08-23T08:03:50;0.00;;;0.00;;
21260;SDS011;10788;47.930;9.766;2022-08-23T08:06:22;0.00;;;0.00;;
21260;SDS011;10788;47.930;9.766;2022-08-23T08:08:49;0.03;;;0.03;;
21260;SDS011;10788;47.930;9.766;2022-08-23T08:11:16;0.10;;;0.10;;
21260;SDS011;10788;47.930;9.766;2022-08-23T08:13:44;0.00;;;0.00;;
21260;SDS011;10788;47.930;9.766;2022-08-23T08:18:52;0.00;;;0.00;;
21260;SDS011;10788;47.930;9.766;2022-08-23T08:21:19;0.00;;;0.00;;
21260;SDS011;10788;47.930;9.766;2022-08-23T08:23:45;0.00;;;0.00;;
21260;SDS011;10788;47.930;9.766;2022-08-23T08:26:10;0.00;;;0.00;;
21260;SDS011;10788;47.930;9.766;2022-08-23T08:28:36;0.10;;;0.10;;
21260;SDS011;10788;47.930;9.766;2022-08-23T08:31:02;0.10;;;0.10;;
21260;SDS011;10788;47.930;9.766;2022-08-23T08:33:28;0.10;;;0.10;;
21260;SDS011;10788;47.930;9.766;2022-08-23T08:35:55;0.10;;;0.10;;
21260;SDS011;10788;47.930;9.766;2022-08-23T08:38:22;0.10;;;0.10;;
21260;SDS011;10788;47.930;9.766;2022-08-23T08:40:49;0.10;;;0.10;;
21260;SDS011;10788;47.930;9.766;2022-08-23T08:48:58;0.10;;;0.10;;
21260;SDS011;10788;47.930;9.766;2022-08-23T08:54:04;0.10;;;0.10;;
21260;SDS011;10788;47.930;9.766;2022-08-23T08:56:34;0.10;;;0.10;;
21260;SDS011;10788;47.930;9.766;2022-08-23T08:59:04;0.10;;;0.10;;
21260;SDS011;10788;47.930;9.766;2022-08-23T09:01:33;0.10;;;0.10;;
21260;SDS011;10788;47.930;9.766;2022-08-23T09:04:01;0.10;;;0.10;;
21260;SDS011;10788;47.930;9.766;2022-08-23T09:06:33;0.10;;;0.10;;
21260;SDS011;10788;47.930;9.766;2022-08-23T09:11:43;0.10;;;0.10;;
21260;SDS011;10788;47.930;9.766;2022-08-23T09:19:28;0.13;;;0.13;;
21260;SDS011;10788;47.930;9.766;2022-08-23T09:21:59;0.20;;;0.20;;
21260;SDS011;10788;47.930;9.766;2022-08-23T09:24:37;0.10;;;0.10;;
21260;SDS011;10788;47.930;9.766;2022-08-23T09:27:04;0.10;;;0.10;;
21260;SDS011;10788;47.930;9.766;2022-08-23T09:29:32;0.10;;;0.10;;
21260;SDS011;10788;47.930;9.766;2022-08-23T09:32:04;0.10;;;0.10;;
21260;SDS011;10788;47.930;9.766;2022-08-23T09:34:49;0.10;;;0.10;;
21260;SDS011;10788;47.930;9.766;2022-08-23T09:39:51;0.10;;;0.10;;
21260;SDS011;10788;47.930;9.766;2022-08-23T09:42:37;0.17;;;0.17;;
21260;SDS011;10788;47.930;9.766;2022-08-23T09:45:25;0.10;;;0.10;;
21260;SDS011;10788;47.930;9.766;2022-08-23T09:51:28;0.17;;;0.17;;
21260;SDS011;10788;47.930;9.766;2022-08-23T09:54:02;0.10;;;0.10;;
21260;SDS011;10788;47.930;9.766;2022-08-23T09:56:29;0.20;;;0.20;;
21260;SDS011;10788;47.930;9.766;2022-08-23T09:58:57;0.20;;;0.20;;
21260;SDS011;10788;47.930;9.766;2022-08-23T10:01:28;0.10;;;0.10;;
21260;SDS011;10788;47.930;9.766;2022-08-23T10:04:10;0.10;;;0.10;;
21260;SDS011;10788;47.930;9.766;2022-08-23T10:06:42;0.20;;;0.20;;
21260;SDS011;10788;47.930;9.766;2022-08-23T10:09:20;0.20;;;0.20;;
21260;SDS011;10788;47.930;9.766;2022-08-23T10:11:52;0.10;;;0.10;;
21260;SDS011;10788;47.930;9.766;2022-08-23T10:14:19;0.20;;;0.20;;
21260;SDS011;10788;47.930;9.766;2022-08-23T10:17:01;0.20;;;0.20;;
21260;SDS011;10788;47.930;9.766;2022-08-23T10:19:49;0.20;;;0.20;;
21260;SDS011;10788;47.930;9.766;2022-08-23T10:22:23;0.20;;;0.20;;
21260;SDS011;10788;47.930;9.766;2022-08-23T10:24:55;0.20;;;0.20;;
21260;SDS011;10788;47.930;9.766;2022-08-23T10:27:47;0.20;;;0.20;;
21260;SDS011;10788;47.930;9.766;2022-08-23T10:36:17;0.10;;;0.10;;
21260;SDS011;10788;47.930;9.766;2022-08-23T10:38:49;0.20;;;0.20;;
21260;SDS011;10788;47.930;9.766;2022-08-23T10:41:25;0.20;;;0.20;;
21260;SDS011;10788;47.930;9.766;2022-08-23T10:46:41;0.20;;;0.20;;
21260;SDS011;10788;47.930;9.766;2022-08-23T10:49:12;0.20;;;0.20;;
21260;SDS011;10788;47.930;9.766;2022-08-23T10:51:44;0.27;;;0.27;;
21260;SDS011;10788;47.930;9.766;2022-08-23T10:54:17;0.20;;;0.20;;
21260;SDS011;10788;47.930;9.766;2022-08-23T10:56:58;0.20;;;0.20;;
21260;SDS011;10788;47.930;9.766;2022-08-23T10:59:24;0.20;;;0.20;;
21260;SDS011;10788;47.930;9.766;2022-08-23T11:07:20;0.20;;;0.20;;
21260;SDS011;10788;47.930;9.766;2022-08-23T11:12:31;0.20;;;0.20;;
21260;SDS011;10788;47.930;9.766;2022-08-23T11:26:01;0.20;;;0.20;;
21260;SDS011;10788;47.930;9.766;2022-08-23T11:48:53;0.30;;;0.30;;
21260;SDS011;10788;47.930;9.766;2022-08-23T11:57:17;0.20;;;0.20;;
21260;SDS011;10788;47.930;9.766;2022-08-23T12:18:43;0.30;;;0.30;;
21260;SDS011;10788;47.930;9.766;2022-08-23T12:23:59;0.30;;;0.30;;
21260;SDS011;10788;47.930;9.766;2022-08-23T12:31:52;0.30;;;0.30;;
21260;SDS011;10788;47.930;9.766;2022-08-23T12:37:22;0.20;;;0.20;;
21260;SDS011;10788;47.930;9.766;2022-08-23T12:40:13;0.20;;;0.20;;
21260;SDS011;10788;47.930;9.766;2022-08-23T12:42:46;0.20;;;0.20;;
21260;SDS011;10788;47.930;9.766;2022-08-23T12:45:17;0.30;;;0.30;;
21260;SDS011;10788;47.930;9.766;2022-08-23T12:48:05;0.20;;;0.20;;
21260;SDS011;10788;47.930;9.766;2022-08-23T12:50:34;0.20;;;0.20;;
21260;SDS011;10788;47.930;9.766;2022-08-23T12:53:04;0.30;;;0.30;;
21260;SDS011;10788;47.930;9.766;2022-08-23T12:55:33;0.30;;;0.30;;
21260;SDS011;10788;47.930;9.766;2022-08-23T12:58:05;0.20;;;0.20;;
21260;SDS011;10788;47.930;9.766;2022-08-23T13:03:05;0.20;;;0.20;;
21260;SDS011;10788;47.930;9.766;2022-08-23T13:05:45;0.20;;;0.20;;
21260;SDS011;10788;47.930;9.766;2022-08-23T13:08:46;0.10;;;0.10;;
21260;SDS011;10788;47.930;9.766;2022-08-23T13:11:26;0.10;;;0.10;;
21260;SDS011;10788;47.930;9.766;2022-08-23T13:13:55;0.20;;;0.20;;
21260;SDS011;10788;47.930;9.766;2022-08-23T13:16:39;0.17;;;0.17;;
21260;SDS011;10788;47.930;9.766;2022-08-23T13:22:11;0.10;;;0.10;;
21260;SDS011;10788;47.930;9.766;2022-08-23T13:24:44;0.10;;;0.10;;
21260;SDS011;10788;47.930;9.766;2022-08-23T13:27:27;0.20;;;0.20;;
21260;SDS011;10788;47.930;9.766;2022-08-23T13:37:58;0.20;;;0.20;;
21260;SDS011;10788;47.930;9.766;2022-08-23T13:40:32;0.20;;;0.20;;
21260;SDS011;10788;47.930;9.766;2022-08-23T13:43:07;0.17;;;0.17;;
21260;SDS011;10788;47.930;9.766;2022-08-23T13:45:45;0.20;;;0.20;;
21260;SDS011;10788;47.930;9.766;2022-08-23T13:48:19;0.20;;;0.20;;
21260;SDS011;10788;47.930;9.766;2022-08-23T13:51:06;0.20;;;0.20;;
21260;SDS011;10788;47.930;9.766;2022-08-23T13:53:55;0.20;;;0.20;;
21260;SDS011;10788;47.930;9.766;2022-08-23T13:56:22;0.20;;;0.20;;
21260;SDS011;10788;47.930;9.766;2022-08-23T13:58:53;0.20;;;0.20;;
21260;SDS011;10788;47.930;9.766;2022-08-23T14:01:26;0.20;;;0.20;;
21260;SDS011;10788;47.930;9.766;2022-08-23T14:03:52;0.20;;;0.20;;
21260;SDS011;10788;47.930;9.766;2022-08-23T14:06:18;0.30;;;0.30;;
21260;SDS011;10788;47.930;9.766;2022-08-23T14:08:44;0.30;;;0.30;;
21260;SDS011;10788;47.930;9.766;2022-08-23T14:11:11;0.20;;;0.20;;
21260;SDS011;10788;47.930;9.766;2022-08-23T14:13:40;0.20;;;0.20;;
21260;SDS011;10788;47.930;9.766;2022-08-23T14:16:09;0.20;;;0.20;;
21260;SDS011;10788;47.930;9.766;2022-08-23T14:18:40;0.20;;;0.20;;
21260;SDS011;10788;47.930;9.766;2022-08-23T14:21:06;0.30;;;0.30;;
21260;SDS011;10788;47.930;9.766;2022-08-23T14:23:32;0.20;;;0.20;;
21260;SDS011;10788;47.930;9.766;2022-08-23T14:25:57;0.20;;;0.20;;
21260;SDS011;10788;47.930;9.766;2022-08-23T14:28:25;0.20;;;0.20;;
21260;SDS011;10788;47.930;9.766;2022-08-23T14:30:53;0.20;;;0.20;;
21260;SDS011;10788;47.930;9.766;2022-08-23T14:33:18;0.10;;;0.10;;
21260;SDS011;10788;47.930;9.766;2022-08-23T14:35:45;0.20;;;0.20;;
21260;SDS011;10788;47.930;9.766;2022-08-23T14:38:11;0.20;;;0.20;;
21260;SDS011;10788;47.930;9.766;2022-08-23T14:40:39;0.20;;;0.20;;
21260;SDS011;10788;47.930;9.766;2022-08-23T14:43:08;0.20;;;0.20;;
21260;SDS011;10788;47.930;9.766;2022-08-23T14:45:34;0.20;;;0.20;;
21260;SDS011;10788;47.930;9.766;2022-08-23T14:48:00;0.20;;;0.20;;
21260;SDS011;10788;47.930;9.766;2022-08-23T14:50:26;0.20;;;0.20;;
21260;SDS011;10788;47.930;9.766;2022-08-23T14:52:51;0.20;;;0.20;;
21260;SDS011;10788;47.930;9.766;2022-08-23T14:55:17;0.20;;;0.20;;
21260;SDS011;10788;47.930;9.766;2022-08-23T14:57:43;0.20;;;0.20;;
21260;SDS011;10788;47.930;9.766;2022-08-23T15:00:09;0.20;;;0.20;;
21260;SDS011;10788;47.930;9.766;2022-08-23T15:02:41;0.20;;;0.20;;
21260;SDS011;10788;47.930;9.766;2022-08-23T15:05:08;0.20;;;0.20;;
21260;SDS011;10788;47.930;9.766;2022-08-23T15:07:35;0.20;;;0.20;;
21260;SDS011;10788;47.930;9.766;2022-08-23T15:10:01;0.20;;;0.20;;
21260;SDS011;10788;47.930;9.766;2022-08-23T15:12:29;0.30;;;0.30;;
21260;SDS011;10788;47.930;9.766;2022-08-23T15:14:54;0.20;;;0.20;;
21260;SDS011;10788;47.930;9.766;2022-08-23T15:17:20;0.20;;;0.20;;
21260;SDS011;10788;47.930;9.766;2022-08-23T15:19:46;0.30;;;0.30;;
21260;SDS011;10788;47.930;9.766;2022-08-23T15:22:11;0.30;;;0.30;;
21260;SDS011;10788;47.930;9.766;2022-08-23T15:24:37;0.20;;;0.20;;
21260;SDS011;10788;47.930;9.766;2022-08-23T15:27:04;0.20;;;0.20;;
21260;SDS011;10788;47.930;9.766;2022-08-23T15:29:30;0.20;;;0.20;;
21260;SDS011;10788;47.930;9.766;2022-08-23T15:31:56;0.30;;;0.30;;
21260;SDS011;10788;47.930;9.766;2022-08-23T15:34:21;0.20;;;0.20;;
21260;SDS011;10788;47.930;9.766;2022-08-23T15:36:47;0.20;;;0.20;;
21260;SDS011;10788;47.930;9.766;2022-08-23T15:39:20;0.20;;;0.20;;
21260;SDS011;10788;47.930;9.766;2022-08-23T15:41:45;0.20;;;0.20;;
21260;SDS011;10788;47.930;9.766;2022-08-23T15:44:13;0.27;;;0.27;;
21260;SDS011;10788;47.930;9.766;2022-08-23T15:46:39;0.20;;;0.20;;
21260;SDS011;10788;47.930;9.766;2022-08-23T15:49:15;0.30;;;0.30;;
21260;SDS011;10788;47.930;9.766;2022-08-23T15:51:42;0.20;;;0.20;;
21260;SDS011;10788;47.930;9.766;2022-08-23T15:54:08;0.20;;;0.20;;
21260;SDS011;10788;47.930;9.766;2022-08-23T15:56:42;0.20;;;0.20;;
21260;SDS011;10788;47.930;9.766;2022-08-23T15:59:14;0.27;;;0.27;;
21260;SDS011;10788;47.930;9.766;2022-08-23T16:01:42;0.30;;;0.30;;
21260;SDS011;10788;47.930;9.766;2022-08-23T16:04:07;0.30;;;0.30;;
21260;SDS011;10788;47.930;9.766;2022-08-23T16:06:34;0.20;;;0.20;;
21260;SDS011;10788;47.930;9.766;2022-08-23T16:09:02;0.20;;;0.20;;
21260;SDS011;10788;47.930;9.766;2022-08-23T16:11:29;0.20;;;0.20;;
21260;SDS011;10788;47.930;9.766;2022-08-23T16:13:55;0.30;;;0.30;;
21260;SDS011;10788;47.930;9.766;2022-08-23T16:16:29;0.20;;;0.20;;
21260;SDS011;10788;47.930;9.766;2022-08-23T16:18:58;0.20;;;0.20;;
21260;SDS011;10788;47.930;9.766;2022-08-23T16:21:25;0.20;;;0.20;;
21260;SDS011;10788;47.930;9.766;2022-08-23T16:23:53;0.23;;;0.23;;
21260;SDS011;10788;47.930;9.766;2022-08-23T16:26:20;0.20;;;0.20;;
21260;SDS011;10788;47.930;9.766;2022-08-23T16:28:49;0.30;;;0.30;;
21260;SDS011;10788;47.930;9.766;2022-08-23T16:31:16;0.17;;;0.17;;
21260;SDS011;10788;47.930;9.766;2022-08-23T16:33:44;0.30;;;0.30;;
21260;SDS011;10788;47.930;9.766;2022-08-23T16:36:11;0.20;;;0.20;;
21260;SDS011;10788;47.930;9.766;2022-08-23T16:38:38;0.10;;;0.10;;
21260;SDS011;10788;47.930;9.766;2022-08-23T16:41:05;0.20;;;0.20;;
21260;SDS011;10788;47.930;9.766;2022-08-23T16:43:31;0.20;;;0.20;;
21260;SDS011;10788;47.930;9.766;2022-08-23T16:45:56;0.20;;;0.20;;
21260;SDS011;10788;47.930;9.766;2022-08-23T16:48:22;0.20;;;0.20;;
21260;SDS011;10788;47.930;9.766;2022-08-23T16:50:48;0.10;;;0.10;;
21260;SDS011;10788;47.930;9.766;2022-08-23T16:53:14;0.20;;;0.20;;
21260;SDS011;10788;47.930;9.766;2022-08-23T16:55:40;0.20;;;0.20;;
21260;SDS011;10788;47.930;9.766;2022-08-23T16:58:07;0.20;;;0.20;;
21260;SDS011;10788;47.930;9.766;2022-08-23T17:00:34;0.10;;;0.10;;
21260;SDS011;10788;47.930;9.766;2022-08-23T17:03:01;0.20;;;0.20;;
21260;SDS011;10788;47.930;9.766;2022-08-23T17:05:28;0.10;;;0.10;;
21260;SDS011;10788;47.930;9.766;2022-08-23T17:07:54;0.20;;;0.20;;
21260;SDS011;10788;47.930;9.766;2022-08-23T17:10:20;0.10;;;0.10;;
21260;SDS011;10788;47.930;9.766;2022-08-23T17:12:47;0.20;;;0.20;;